sensor_id;sensor_type;location;lat;lon;timestamp;P1;durP1;ratioP1;P2;durP2;ratioP2
75426;SDS011;64007;50.632;13.700;2023-01-29T00:01:42;8.88;;;4.75;;
75426;SDS011;64007;50.632;13.700;2023-01-29T00:04:07;8.52;;;4.03;;
75426;SDS011;64007;50.632;13.700;2023-01-29T00:06:33;6.82;;;3.65;;
75426;SDS011;64007;50.632;13.700;2023-01-29T00:08:59;10.70;;;3.90;;
75426;SDS011;64007;50.632;13.700;2023-01-29T00:11:25;6.28;;;3.40;;
75426;SDS011;64007;50.632;13.700;2023-01-29T00:13:51;8.48;;;3.38;;
75426;SDS011;64007;50.632;13.700;2023-01-29T00:16:17;6.65;;;4.00;;
75426;SDS011;64007;50.632;13.700;2023-01-29T00:18:43;11.43;;;4.25;;
75426;SDS011;64007;50.632;13.700;2023-01-29T00:21:19;5.95;;;3.83;;
75426;SDS011;64007;50.632;13.700;2023-01-29T00:23:49;7.15;;;3.88;;
75426;SDS011;64007;50.632;13.700;2023-01-29T00:26:15;8.50;;;3.97;;
75426;SDS011;64007;50.632;13.700;2023-01-29T00:28:41;9.20;;;4.53;;
75426;SDS011;64007;50.632;13.700;2023-01-29T00:31:12;9.30;;;4.22;;
75426;SDS011;64007;50.632;13.700;2023-01-29T00:33:40;10.20;;;4.90;;
75426;SDS011;64007;50.632;13.700;2023-01-29T00:36:06;8.63;;;4.20;;
75426;SDS011;64007;50.632;13.700;2023-01-29T00:38:34;8.27;;;4.03;;
75426;SDS011;64007;50.632;13.700;2023-01-29T00:41:35;9.93;;;4.57;;
75426;SDS011;64007;50.632;13.700;2023-01-29T00:44:12;8.70;;;3.83;;
75426;SDS011;64007;50.632;13.700;2023-01-29T00:46:57;12.88;;;4.30;;
75426;SDS011;64007;50.632;13.700;2023-01-29T00:49:23;9.32;;;4.35;;
75426;SDS011;64007;50.632;13.700;2023-01-29T00:51:50;9.60;;;4.55;;
75426;SDS011;64007;50.632;13.700;2023-01-29T00:54:35;6.97;;;3.97;;
75426;SDS011;64007;50.632;13.700;2023-01-29T00:57:01;11.43;;;4.35;;
75426;SDS011;64007;50.632;13.700;2023-01-29T00:59:27;11.32;;;5.22;;
75426;SDS011;64007;50.632;13.700;2023-01-29T01:01:53;11.90;;;4.68;;
75426;SDS011;64007;50.632;13.700;2023-01-29T01:04:37;8.82;;;3.72;;
75426;SDS011;64007;50.632;13.700;2023-01-29T01:07:03;7.53;;;4.28;;
75426;SDS011;64007;50.632;13.700;2023-01-29T01:09:28;9.27;;;4.85;;
75426;SDS011;64007;50.632;13.700;2023-01-29T01:12:13;9.57;;;4.35;;
75426;SDS011;64007;50.632;13.700;2023-01-29T01:14:38;8.50;;;4.15;;
75426;SDS011;64007;50.632;13.700;2023-01-29T01:17:07;6.15;;;3.83;;
75426;SDS011;64007;50.632;13.700;2023-01-29T01:19:33;9.38;;;4.03;;
75426;SDS011;64007;50.632;13.700;2023-01-29T01:22:00;5.75;;;3.67;;
75426;SDS011;64007;50.632;13.700;2023-01-29T01:24:25;6.85;;;3.75;;
75426;SDS011;64007;50.632;13.700;2023-01-29T01:26:51;7.55;;;3.50;;
75426;SDS011;64007;50.632;13.700;2023-01-29T01:29:17;10.05;;;4.47;;
75426;SDS011;64007;50.632;13.700;2023-01-29T01:31:43;7.78;;;4.13;;
75426;SDS011;64007;50.632;13.700;2023-01-29T01:34:09;8.60;;;4.18;;
75426;SDS011;64007;50.632;13.700;2023-01-29T01:36:35;9.63;;;3.88;;
75426;SDS011;64007;50.632;13.700;2023-01-29T01:39:01;8.23;;;3.80;;
75426;SDS011;64007;50.632;13.700;2023-01-29T01:41:28;5.72;;;3.63;;
75426;SDS011;64007;50.632;13.700;2023-01-29T01:43:55;7.75;;;3.80;;
75426;SDS011;64007;50.632;13.700;2023-01-29T01:46:32;10.77;;;4.25;;
75426;SDS011;64007;50.632;13.700;2023-01-29T01:51:37;9.63;;;4.15;;
75426;SDS011;64007;50.632;13.700;2023-01-29T01:54:13;6.28;;;3.45;;
75426;SDS011;64007;50.632;13.700;2023-01-29T01:56:55;7.28;;;3.88;;
75426;SDS011;64007;50.632;13.700;2023-01-29T01:59:33;7.60;;;3.92;;
75426;SDS011;64007;50.632;13.700;2023-01-29T02:02:04;7.40;;;3.58;;
75426;SDS011;64007;50.632;13.700;2023-01-29T02:04:50;8.38;;;3.80;;
75426;SDS011;64007;50.632;13.700;2023-01-29T02:07:39;5.97;;;3.65;;
75426;SDS011;64007;50.632;13.700;2023-01-29T02:10:27;6.88;;;3.85;;
75426;SDS011;64007;50.632;13.700;2023-01-29T02:12:57;6.53;;;3.70;;
75426;SDS011;64007;50.632;13.700;2023-01-29T02:15:22;8.43;;;4.00;;
75426;SDS011;64007;50.632;13.700;2023-01-29T02:17:49;5.97;;;3.80;;
75426;SDS011;64007;50.632;13.700;2023-01-29T02:20:19;6.40;;;3.72;;
75426;SDS011;64007;50.632;13.700;2023-01-29T02:31:31;7.30;;;3.92;;
75426;SDS011;64007;50.632;13.700;2023-01-29T02:36:57;11.85;;;3.63;;
75426;SDS011;64007;50.632;13.700;2023-01-29T02:44:37;5.40;;;3.35;;
75426;SDS011;64007;50.632;13.700;2023-01-29T02:49:58;7.25;;;3.75;;
75426;SDS011;64007;50.632;13.700;2023-01-29T02:55:11;8.02;;;3.78;;
75426;SDS011;64007;50.632;13.700;2023-01-29T02:57:41;6.68;;;3.67;;
75426;SDS011;64007;50.632;13.700;2023-01-29T03:00:14;5.50;;;3.50;;
75426;SDS011;64007;50.632;13.700;2023-01-29T03:02:51;4.50;;;3.28;;
75426;SDS011;64007;50.632;13.700;2023-01-29T03:05:25;5.88;;;3.47;;
75426;SDS011;64007;50.632;13.700;2023-01-29T03:07:56;5.50;;;3.50;;
75426;SDS011;64007;50.632;13.700;2023-01-29T03:12:56;6.07;;;3.78;;
75426;SDS011;64007;50.632;13.700;2023-01-29T03:15:43;5.70;;;3.70;;
75426;SDS011;64007;50.632;13.700;2023-01-29T03:18:18;5.75;;;3.20;;
75426;SDS011;64007;50.632;13.700;2023-01-29T03:20:56;6.60;;;3.53;;
75426;SDS011;64007;50.632;13.700;2023-01-29T03:23:28;8.77;;;3.47;;
75426;SDS011;64007;50.632;13.700;2023-01-29T03:26:17;7.15;;;3.80;;
75426;SDS011;64007;50.632;13.700;2023-01-29T03:29:04;6.32;;;3.33;;
75426;SDS011;64007;50.632;13.700;2023-01-29T03:31:52;6.95;;;3.67;;
75426;SDS011;64007;50.632;13.700;2023-01-29T03:34:32;6.28;;;3.45;;
75426;SDS011;64007;50.632;13.700;2023-01-29T03:37:31;5.55;;;3.50;;
75426;SDS011;64007;50.632;13.700;2023-01-29T03:40:00;9.60;;;4.53;;
75426;SDS011;64007;50.632;13.700;2023-01-29T03:42:37;7.38;;;4.38;;
75426;SDS011;64007;50.632;13.700;2023-01-29T03:53:50;5.13;;;3.50;;
75426;SDS011;64007;50.632;13.700;2023-01-29T03:56:02;9.25;;;4.00;;
75426;SDS011;64007;50.632;13.700;2023-01-29T03:58:39;5.97;;;3.90;;
75426;SDS011;64007;50.632;13.700;2023-01-29T04:01:14;6.28;;;4.00;;
75426;SDS011;64007;50.632;13.700;2023-01-29T04:03:57;7.32;;;4.20;;
75426;SDS011;64007;50.632;13.700;2023-01-29T04:06:37;7.85;;;4.22;;
75426;SDS011;64007;50.632;13.700;2023-01-29T04:09:09;8.73;;;4.70;;
75426;SDS011;64007;50.632;13.700;2023-01-29T04:11:40;7.55;;;4.88;;
75426;SDS011;64007;50.632;13.700;2023-01-29T04:14:12;11.13;;;5.15;;
75426;SDS011;64007;50.632;13.700;2023-01-29T04:16:39;11.15;;;5.22;;
75426;SDS011;64007;50.632;13.700;2023-01-29T04:19:10;10.13;;;5.72;;
75426;SDS011;64007;50.632;13.700;2023-01-29T04:21:36;7.90;;;4.80;;
75426;SDS011;64007;50.632;13.700;2023-01-29T04:24:03;9.23;;;4.93;;
75426;SDS011;64007;50.632;13.700;2023-01-29T04:29:17;8.55;;;5.10;;
75426;SDS011;64007;50.632;13.700;2023-01-29T04:35:13;10.70;;;5.95;;
75426;SDS011;64007;50.632;13.700;2023-01-29T04:39:58;9.60;;;5.43;;
75426;SDS011;64007;50.632;13.700;2023-01-29T04:43:04;12.02;;;6.00;;
75426;SDS011;64007;50.632;13.700;2023-01-29T04:48:38;10.00;;;4.78;;
75426;SDS011;64007;50.632;13.700;2023-01-29T04:51:19;9.40;;;4.57;;
75426;SDS011;64007;50.632;13.700;2023-01-29T04:54:17;8.68;;;4.82;;
75426;SDS011;64007;50.632;13.700;2023-01-29T04:56:53;9.20;;;4.32;;
75426;SDS011;64007;50.632;13.700;2023-01-29T04:59:29;6.43;;;4.10;;
75426;SDS011;64007;50.632;13.700;2023-01-29T05:01:59;9.18;;;4.60;;
75426;SDS011;64007;50.632;13.700;2023-01-29T05:04:26;9.02;;;4.65;;
75426;SDS011;64007;50.632;13.700;2023-01-29T05:06:57;8.23;;;4.47;;
75426;SDS011;64007;50.632;13.700;2023-01-29T05:09:28;9.93;;;4.25;;
75426;SDS011;64007;50.632;13.700;2023-01-29T05:11:55;8.82;;;4.45;;
75426;SDS011;64007;50.632;13.700;2023-01-29T05:14:21;8.82;;;4.78;;
75426;SDS011;64007;50.632;13.700;2023-01-29T05:16:50;10.35;;;4.88;;
75426;SDS011;64007;50.632;13.700;2023-01-29T05:19:18;6.78;;;4.10;;
75426;SDS011;64007;50.632;13.700;2023-01-29T05:21:44;6.80;;;4.20;;
75426;SDS011;64007;50.632;13.700;2023-01-29T05:24:16;8.60;;;4.72;;
75426;SDS011;64007;50.632;13.700;2023-01-29T05:26:46;7.82;;;4.90;;
75426;SDS011;64007;50.632;13.700;2023-01-29T05:29:32;9.18;;;5.03;;
75426;SDS011;64007;50.632;13.700;2023-01-29T05:31:58;8.95;;;5.18;;
75426;SDS011;64007;50.632;13.700;2023-01-29T05:34:24;7.95;;;4.53;;
75426;SDS011;64007;50.632;13.700;2023-01-29T05:36:50;10.85;;;5.45;;
75426;SDS011;64007;50.632;13.700;2023-01-29T05:39:16;9.80;;;4.82;;
75426;SDS011;64007;50.632;13.700;2023-01-29T05:41:45;7.88;;;4.90;;
75426;SDS011;64007;50.632;13.700;2023-01-29T05:44:10;7.25;;;4.82;;
75426;SDS011;64007;50.632;13.700;2023-01-29T05:46:36;9.18;;;5.07;;
75426;SDS011;64007;50.632;13.700;2023-01-29T05:49:02;9.75;;;4.78;;
75426;SDS011;64007;50.632;13.700;2023-01-29T05:51:29;11.13;;;4.43;;
75426;SDS011;64007;50.632;13.700;2023-01-29T05:53:55;9.18;;;4.60;;
75426;SDS011;64007;50.632;13.700;2023-01-29T05:56:21;8.95;;;4.65;;
75426;SDS011;64007;50.632;13.700;2023-01-29T05:58:47;8.95;;;4.60;;
75426;SDS011;64007;50.632;13.700;2023-01-29T06:01:17;11.60;;;4.78;;
75426;SDS011;64007;50.632;13.700;2023-01-29T06:03:44;7.20;;;4.35;;
75426;SDS011;64007;50.632;13.700;2023-01-29T06:06:11;9.10;;;4.72;;
75426;SDS011;64007;50.632;13.700;2023-01-29T06:08:37;9.25;;;4.32;;
75426;SDS011;64007;50.632;13.700;2023-01-29T06:11:05;7.28;;;4.43;;
75426;SDS011;64007;50.632;13.700;2023-01-29T06:13:32;9.15;;;4.57;;
75426;SDS011;64007;50.632;13.700;2023-01-29T06:15:58;8.18;;;4.18;;
75426;SDS011;64007;50.632;13.700;2023-01-29T06:18:23;6.85;;;4.50;;
75426;SDS011;64007;50.632;13.700;2023-01-29T06:20:49;7.18;;;4.43;;
75426;SDS011;64007;50.632;13.700;2023-01-29T06:23:15;8.35;;;4.05;;
75426;SDS011;64007;50.632;13.700;2023-01-29T06:25:41;12.13;;;4.78;;
75426;SDS011;64007;50.632;13.700;2023-01-29T06:28:06;7.32;;;4.53;;
75426;SDS011;64007;50.632;13.700;2023-01-29T06:30:32;11.18;;;4.50;;
75426;SDS011;64007;50.632;13.700;2023-01-29T06:32:58;7.78;;;4.47;;
75426;SDS011;64007;50.632;13.700;2023-01-29T06:35:26;10.75;;;4.55;;
75426;SDS011;64007;50.632;13.700;2023-01-29T06:37:52;6.80;;;3.80;;
75426;SDS011;64007;50.632;13.700;2023-01-29T06:40:19;7.60;;;4.07;;
75426;SDS011;64007;50.632;13.700;2023-01-29T06:42:44;5.97;;;4.18;;
75426;SDS011;64007;50.632;13.700;2023-01-29T06:45:10;10.32;;;4.47;;
75426;SDS011;64007;50.632;13.700;2023-01-29T06:47:35;8.85;;;4.60;;
75426;SDS011;64007;50.632;13.700;2023-01-29T06:50:02;7.32;;;3.50;;
75426;SDS011;64007;50.632;13.700;2023-01-29T06:52:28;9.52;;;4.53;;
75426;SDS011;64007;50.632;13.700;2023-01-29T06:54:54;8.18;;;4.03;;
75426;SDS011;64007;50.632;13.700;2023-01-29T06:57:20;7.82;;;4.07;;
75426;SDS011;64007;50.632;13.700;2023-01-29T06:59:47;10.23;;;4.03;;
75426;SDS011;64007;50.632;13.700;2023-01-29T07:02:12;6.68;;;4.20;;
75426;SDS011;64007;50.632;13.700;2023-01-29T07:04:38;6.20;;;3.88;;
75426;SDS011;64007;50.632;13.700;2023-01-29T07:07:05;12.45;;;4.63;;
75426;SDS011;64007;50.632;13.700;2023-01-29T07:09:38;7.35;;;4.00;;
75426;SDS011;64007;50.632;13.700;2023-01-29T07:12:05;6.15;;;3.78;;
75426;SDS011;64007;50.632;13.700;2023-01-29T07:14:31;7.03;;;3.78;;
75426;SDS011;64007;50.632;13.700;2023-01-29T07:16:57;6.75;;;4.00;;
75426;SDS011;64007;50.632;13.700;2023-01-29T07:19:23;6.60;;;4.28;;
75426;SDS011;64007;50.632;13.700;2023-01-29T07:21:48;11.10;;;4.20;;
75426;SDS011;64007;50.632;13.700;2023-01-29T07:24:14;11.07;;;4.65;;
75426;SDS011;64007;50.632;13.700;2023-01-29T07:26:40;10.43;;;5.22;;
75426;SDS011;64007;50.632;13.700;2023-01-29T07:29:06;7.82;;;5.15;;
75426;SDS011;64007;50.632;13.700;2023-01-29T07:31:32;10.43;;;5.57;;
75426;SDS011;64007;50.632;13.700;2023-01-29T07:33:58;15.63;;;5.97;;
75426;SDS011;64007;50.632;13.700;2023-01-29T07:36:24;12.88;;;6.05;;
75426;SDS011;64007;50.632;13.700;2023-01-29T07:38:51;10.90;;;6.63;;
75426;SDS011;64007;50.632;13.700;2023-01-29T07:41:17;11.35;;;6.30;;
75426;SDS011;64007;50.632;13.700;2023-01-29T07:43:43;11.18;;;6.53;;
75426;SDS011;64007;50.632;13.700;2023-01-29T07:46:09;10.40;;;6.28;;
75426;SDS011;64007;50.632;13.700;2023-01-29T07:48:34;13.90;;;6.82;;
75426;SDS011;64007;50.632;13.700;2023-01-29T07:51:00;11.90;;;6.70;;
75426;SDS011;64007;50.632;13.700;2023-01-29T07:53:26;11.90;;;6.85;;
75426;SDS011;64007;50.632;13.700;2023-01-29T07:55:52;17.23;;;7.30;;
75426;SDS011;64007;50.632;13.700;2023-01-29T07:58:18;16.23;;;7.22;;
75426;SDS011;64007;50.632;13.700;2023-01-29T08:00:44;11.88;;;6.85;;
75426;SDS011;64007;50.632;13.700;2023-01-29T08:03:11;14.07;;;6.63;;
75426;SDS011;64007;50.632;13.700;2023-01-29T08:05:38;13.93;;;6.45;;
75426;SDS011;64007;50.632;13.700;2023-01-29T08:08:04;14.05;;;6.72;;
75426;SDS011;64007;50.632;13.700;2023-01-29T08:10:30;17.55;;;7.93;;
75426;SDS011;64007;50.632;13.700;2023-01-29T08:12:56;14.48;;;6.90;;
75426;SDS011;64007;50.632;13.700;2023-01-29T08:15:23;15.32;;;6.57;;
75426;SDS011;64007;50.632;13.700;2023-01-29T08:17:49;15.70;;;6.97;;
75426;SDS011;64007;50.632;13.700;2023-01-29T08:20:16;22.73;;;7.75;;
75426;SDS011;64007;50.632;13.700;2023-01-29T08:22:43;13.48;;;6.60;;
75426;SDS011;64007;50.632;13.700;2023-01-29T08:25:08;12.68;;;6.18;;
75426;SDS011;64007;50.632;13.700;2023-01-29T08:27:34;14.52;;;6.90;;
75426;SDS011;64007;50.632;13.700;2023-01-29T08:30:00;28.42;;;7.47;;
75426;SDS011;64007;50.632;13.700;2023-01-29T08:32:26;16.00;;;6.80;;
75426;SDS011;64007;50.632;13.700;2023-01-29T08:34:52;31.20;;;7.22;;
75426;SDS011;64007;50.632;13.700;2023-01-29T08:37:18;43.78;;;7.28;;
75426;SDS011;64007;50.632;13.700;2023-01-29T08:39:43;28.80;;;7.43;;
75426;SDS011;64007;50.632;13.700;2023-01-29T08:42:09;17.23;;;7.45;;
75426;SDS011;64007;50.632;13.700;2023-01-29T08:44:34;27.70;;;7.05;;
75426;SDS011;64007;50.632;13.700;2023-01-29T08:47:00;28.42;;;7.30;;
75426;SDS011;64007;50.632;13.700;2023-01-29T08:49:26;30.40;;;7.70;;
75426;SDS011;64007;50.632;13.700;2023-01-29T08:51:53;27.42;;;7.53;;
75426;SDS011;64007;50.632;13.700;2023-01-29T08:54:21;17.27;;;6.50;;
75426;SDS011;64007;50.632;13.700;2023-01-29T08:56:47;13.88;;;5.07;;
75426;SDS011;64007;50.632;13.700;2023-01-29T08:59:13;26.45;;;6.68;;
75426;SDS011;64007;50.632;13.700;2023-01-29T09:01:39;14.50;;;5.57;;
75426;SDS011;64007;50.632;13.700;2023-01-29T09:04:04;13.65;;;5.55;;
75426;SDS011;64007;50.632;13.700;2023-01-29T09:06:30;18.50;;;6.85;;
75426;SDS011;64007;50.632;13.700;2023-01-29T09:08:56;22.70;;;7.10;;
75426;SDS011;64007;50.632;13.700;2023-01-29T09:11:22;25.50;;;7.55;;
75426;SDS011;64007;50.632;13.700;2023-01-29T09:13:47;25.40;;;7.47;;
75426;SDS011;64007;50.632;13.700;2023-01-29T09:16:13;17.75;;;7.22;;
75426;SDS011;64007;50.632;13.700;2023-01-29T09:18:39;21.70;;;6.97;;
75426;SDS011;64007;50.632;13.700;2023-01-29T09:21:04;12.85;;;6.45;;
75426;SDS011;64007;50.632;13.700;2023-01-29T09:23:30;15.88;;;6.10;;
75426;SDS011;64007;50.632;13.700;2023-01-29T09:25:56;18.48;;;7.20;;
75426;SDS011;64007;50.632;13.700;2023-01-29T09:28:22;20.92;;;6.65;;
75426;SDS011;64007;50.632;13.700;2023-01-29T09:30:48;23.80;;;7.30;;
75426;SDS011;64007;50.632;13.700;2023-01-29T09:33:14;29.20;;;7.18;;
75426;SDS011;64007;50.632;13.700;2023-01-29T09:35:40;27.73;;;7.15;;
75426;SDS011;64007;50.632;13.700;2023-01-29T09:38:07;17.45;;;6.80;;
75426;SDS011;64007;50.632;13.700;2023-01-29T09:40:37;20.27;;;7.95;;
75426;SDS011;64007;50.632;13.700;2023-01-29T09:43:21;24.50;;;7.10;;
75426;SDS011;64007;50.632;13.700;2023-01-29T09:48:31;23.08;;;7.25;;
75426;SDS011;64007;50.632;13.700;2023-01-29T09:51:02;22.85;;;5.78;;
75426;SDS011;64007;50.632;13.700;2023-01-29T09:53:38;9.95;;;5.32;;
75426;SDS011;64007;50.632;13.700;2023-01-29T09:56:13;8.65;;;5.03;;
75426;SDS011;64007;50.632;13.700;2023-01-29T09:58:43;11.93;;;5.85;;
75426;SDS011;64007;50.632;13.700;2023-01-29T10:01:14;9.13;;;5.50;;
75426;SDS011;64007;50.632;13.700;2023-01-29T10:06:53;8.50;;;4.65;;
75426;SDS011;64007;50.632;13.700;2023-01-29T10:21:04;32.70;;;11.30;;
75426;SDS011;64007;50.632;13.700;2023-01-29T10:23:26;30.20;;;9.85;;
75426;SDS011;64007;50.632;13.700;2023-01-29T10:25:56;19.25;;;8.07;;
75426;SDS011;64007;50.632;13.700;2023-01-29T10:30:59;12.70;;;5.43;;
75426;SDS011;64007;50.632;13.700;2023-01-29T10:33:33;16.13;;;5.93;;
75426;SDS011;64007;50.632;13.700;2023-01-29T10:36:04;12.02;;;6.05;;
75426;SDS011;64007;50.632;13.700;2023-01-29T10:38:39;10.88;;;6.30;;
75426;SDS011;64007;50.632;13.700;2023-01-29T10:43:54;13.60;;;6.05;;
75426;SDS011;64007;50.632;13.700;2023-01-29T11:00:50;11.05;;;6.50;;
75426;SDS011;64007;50.632;13.700;2023-01-29T11:03:16;12.43;;;6.10;;
75426;SDS011;64007;50.632;13.700;2023-01-29T11:08:20;7.85;;;4.95;;
75426;SDS011;64007;50.632;13.700;2023-01-29T11:13:32;10.63;;;5.30;;
75426;SDS011;64007;50.632;13.700;2023-01-29T11:16:03;9.35;;;5.28;;
75426;SDS011;64007;50.632;13.700;2023-01-29T11:18:35;11.95;;;5.57;;
75426;SDS011;64007;50.632;13.700;2023-01-29T11:21:16;14.55;;;5.50;;
75426;SDS011;64007;50.632;13.700;2023-01-29T11:23:42;11.25;;;5.25;;
75426;SDS011;64007;50.632;13.700;2023-01-29T11:26:10;11.02;;;5.50;;
75426;SDS011;64007;50.632;13.700;2023-01-29T11:28:39;9.82;;;5.78;;
75426;SDS011;64007;50.632;13.700;2023-01-29T11:34:00;9.68;;;5.60;;
75426;SDS011;64007;50.632;13.700;2023-01-29T11:36:35;12.63;;;5.72;;
75426;SDS011;64007;50.632;13.700;2023-01-29T11:41:43;9.52;;;5.53;;
75426;SDS011;64007;50.632;13.700;2023-01-29T11:44:18;13.60;;;6.90;;
75426;SDS011;64007;50.632;13.700;2023-01-29T11:46:44;13.43;;;6.15;;
75426;SDS011;64007;50.632;13.700;2023-01-29T11:49:31;9.80;;;5.68;;
75426;SDS011;64007;50.632;13.700;2023-01-29T11:52:00;16.70;;;5.28;;
75426;SDS011;64007;50.632;13.700;2023-01-29T11:54:30;14.40;;;6.45;;
75426;SDS011;64007;50.632;13.700;2023-01-29T11:57:00;15.18;;;6.72;;
75426;SDS011;64007;50.632;13.700;2023-01-29T12:02:42;14.82;;;6.15;;
75426;SDS011;64007;50.632;13.700;2023-01-29T12:07:22;10.15;;;5.13;;
75426;SDS011;64007;50.632;13.700;2023-01-29T12:09:55;10.05;;;5.18;;
75426;SDS011;64007;50.632;13.700;2023-01-29T12:12:26;9.02;;;4.80;;
75426;SDS011;64007;50.632;13.700;2023-01-29T12:20:40;14.00;;;5.80;;
75426;SDS011;64007;50.632;13.700;2023-01-29T12:32:11;11.05;;;5.88;;
75426;SDS011;64007;50.632;13.700;2023-01-29T12:37:39;11.73;;;5.95;;
75426;SDS011;64007;50.632;13.700;2023-01-29T12:40:10;13.95;;;5.70;;
75426;SDS011;64007;50.632;13.700;2023-01-29T12:42:40;14.27;;;5.97;;
75426;SDS011;64007;50.632;13.700;2023-01-29T12:45:14;14.45;;;6.03;;
75426;SDS011;64007;50.632;13.700;2023-01-29T12:47:53;11.02;;;6.05;;
75426;SDS011;64007;50.632;13.700;2023-01-29T12:52:53;8.63;;;5.32;;
75426;SDS011;64007;50.632;13.700;2023-01-29T13:05:33;21.20;;;6.47;;
75426;SDS011;64007;50.632;13.700;2023-01-29T13:08:06;13.93;;;5.82;;
75426;SDS011;64007;50.632;13.700;2023-01-29T13:16:09;14.50;;;6.80;;
75426;SDS011;64007;50.632;13.700;2023-01-29T13:21:03;11.32;;;5.53;;
75426;SDS011;64007;50.632;13.700;2023-01-29T13:23:49;10.63;;;5.43;;
75426;SDS011;64007;50.632;13.700;2023-01-29T13:26:18;12.18;;;5.47;;
75426;SDS011;64007;50.632;13.700;2023-01-29T13:28:45;10.13;;;5.28;;
75426;SDS011;64007;50.632;13.700;2023-01-29T13:33:51;17.33;;;5.07;;
75426;SDS011;64007;50.632;13.700;2023-01-29T13:36:42;10.93;;;5.45;;
75426;SDS011;64007;50.632;13.700;2023-01-29T13:39:21;7.97;;;4.53;;
75426;SDS011;64007;50.632;13.700;2023-01-29T13:41:52;12.63;;;4.72;;
75426;SDS011;64007;50.632;13.700;2023-01-29T13:44:19;22.92;;;5.75;;
75426;SDS011;64007;50.632;13.700;2023-01-29T13:46:53;17.45;;;7.47;;
75426;SDS011;64007;50.632;13.700;2023-01-29T13:49:29;14.38;;;6.53;;
75426;SDS011;64007;50.632;13.700;2023-01-29T13:52:23;14.55;;;8.00;;
75426;SDS011;64007;50.632;13.700;2023-01-29T13:55:55;19.08;;;8.27;;
75426;SDS011;64007;50.632;13.700;2023-01-29T14:00:52;16.75;;;6.63;;
75426;SDS011;64007;50.632;13.700;2023-01-29T14:13:38;12.20;;;6.72;;
75426;SDS011;64007;50.632;13.700;2023-01-29T14:18:47;17.30;;;6.32;;
75426;SDS011;64007;50.632;13.700;2023-01-29T14:24:06;13.30;;;6.13;;
75426;SDS011;64007;50.632;13.700;2023-01-29T14:29:22;18.48;;;8.50;;
75426;SDS011;64007;50.632;13.700;2023-01-29T14:31:57;9.07;;;5.63;;
75426;SDS011;64007;50.632;13.700;2023-01-29T14:34:29;12.90;;;7.00;;
75426;SDS011;64007;50.632;13.700;2023-01-29T14:37:00;15.27;;;8.15;;
75426;SDS011;64007;50.632;13.700;2023-01-29T14:39:43;14.67;;;7.23;;
75426;SDS011;64007;50.632;13.700;2023-01-29T14:42:22;13.20;;;6.53;;
75426;SDS011;64007;50.632;13.700;2023-01-29T14:53:08;12.85;;;5.95;;
75426;SDS011;64007;50.632;13.700;2023-01-29T14:58:37;10.13;;;5.22;;
75426;SDS011;64007;50.632;13.700;2023-01-29T15:04:02;15.80;;;6.60;;
75426;SDS011;64007;50.632;13.700;2023-01-29T15:06:46;20.27;;;7.45;;
75426;SDS011;64007;50.632;13.700;2023-01-29T15:09:28;13.00;;;6.57;;
75426;SDS011;64007;50.632;13.700;2023-01-29T15:17:55;15.68;;;8.13;;
75426;SDS011;64007;50.632;13.700;2023-01-29T15:20:30;12.40;;;5.85;;
75426;SDS011;64007;50.632;13.700;2023-01-29T15:22:56;14.75;;;6.63;;
75426;SDS011;64007;50.632;13.700;2023-01-29T15:25:22;13.77;;;6.93;;
75426;SDS011;64007;50.632;13.700;2023-01-29T15:27:48;15.45;;;7.35;;
75426;SDS011;64007;50.632;13.700;2023-01-29T15:30:15;21.02;;;7.38;;
75426;SDS011;64007;50.632;13.700;2023-01-29T15:32:44;10.55;;;6.68;;
75426;SDS011;64007;50.632;13.700;2023-01-29T15:37:58;10.50;;;5.03;;
75426;SDS011;64007;50.632;13.700;2023-01-29T15:40:31;14.82;;;5.88;;
75426;SDS011;64007;50.632;13.700;2023-01-29T15:42:58;11.43;;;5.50;;
75426;SDS011;64007;50.632;13.700;2023-01-29T15:45:26;14.27;;;8.23;;
75426;SDS011;64007;50.632;13.700;2023-01-29T15:47:57;23.10;;;10.93;;
75426;SDS011;64007;50.632;13.700;2023-01-29T15:50:27;18.85;;;8.13;;
75426;SDS011;64007;50.632;13.700;2023-01-29T15:52:55;13.93;;;6.90;;
75426;SDS011;64007;50.632;13.700;2023-01-29T15:55:23;68.53;;;30.65;;
75426;SDS011;64007;50.632;13.700;2023-01-29T15:57:49;44.80;;;21.95;;
75426;SDS011;64007;50.632;13.700;2023-01-29T16:00:24;12.23;;;7.30;;
75426;SDS011;64007;50.632;13.700;2023-01-29T16:02:53;10.45;;;5.70;;
75426;SDS011;64007;50.632;13.700;2023-01-29T16:05:23;12.85;;;5.90;;
75426;SDS011;64007;50.632;13.700;2023-01-29T16:07:51;11.80;;;5.25;;
75426;SDS011;64007;50.632;13.700;2023-01-29T16:10:23;10.63;;;4.80;;
75426;SDS011;64007;50.632;13.700;2023-01-29T16:12:52;8.63;;;5.03;;
75426;SDS011;64007;50.632;13.700;2023-01-29T16:15:21;9.40;;;4.75;;
75426;SDS011;64007;50.632;13.700;2023-01-29T16:17:52;11.93;;;4.72;;
75426;SDS011;64007;50.632;13.700;2023-01-29T16:20:32;8.93;;;4.35;;
75426;SDS011;64007;50.632;13.700;2023-01-29T16:23:02;8.73;;;4.70;;
75426;SDS011;64007;50.632;13.700;2023-01-29T16:25:28;12.50;;;5.00;;
75426;SDS011;64007;50.632;13.700;2023-01-29T16:27:56;16.17;;;4.70;;
75426;SDS011;64007;50.632;13.700;2023-01-29T16:30:25;7.18;;;4.10;;
75426;SDS011;64007;50.632;13.700;2023-01-29T16:32:52;11.85;;;4.90;;
75426;SDS011;64007;50.632;13.700;2023-01-29T16:35:24;8.95;;;4.07;;
75426;SDS011;64007;50.632;13.700;2023-01-29T16:37:51;8.13;;;4.32;;
75426;SDS011;64007;50.632;13.700;2023-01-29T16:40:25;9.30;;;4.40;;
75426;SDS011;64007;50.632;13.700;2023-01-29T16:43:04;10.43;;;5.00;;
75426;SDS011;64007;50.632;13.700;2023-01-29T16:45:42;11.80;;;4.80;;
75426;SDS011;64007;50.632;13.700;2023-01-29T16:48:29;8.32;;;4.35;;
75426;SDS011;64007;50.632;13.700;2023-01-29T16:51:03;7.88;;;4.25;;
75426;SDS011;64007;50.632;13.700;2023-01-29T16:53:52;9.55;;;5.03;;
75426;SDS011;64007;50.632;13.700;2023-01-29T16:56:20;11.10;;;4.72;;
75426;SDS011;64007;50.632;13.700;2023-01-29T16:58:49;10.48;;;4.93;;
75426;SDS011;64007;50.632;13.700;2023-01-29T17:01:16;10.77;;;5.13;;
75426;SDS011;64007;50.632;13.700;2023-01-29T17:03:42;10.35;;;4.88;;
75426;SDS011;64007;50.632;13.700;2023-01-29T17:06:12;7.85;;;4.57;;
75426;SDS011;64007;50.632;13.700;2023-01-29T17:08:44;9.13;;;4.05;;
75426;SDS011;64007;50.632;13.700;2023-01-29T17:11:11;9.68;;;4.80;;
75426;SDS011;64007;50.632;13.700;2023-01-29T17:13:47;11.00;;;4.95;;
75426;SDS011;64007;50.632;13.700;2023-01-29T17:18:45;12.40;;;5.13;;
75426;SDS011;64007;50.632;13.700;2023-01-29T17:21:11;10.52;;;4.95;;
75426;SDS011;64007;50.632;13.700;2023-01-29T17:23:36;12.32;;;5.88;;
75426;SDS011;64007;50.632;13.700;2023-01-29T17:26:02;12.13;;;5.82;;
75426;SDS011;64007;50.632;13.700;2023-01-29T17:28:31;18.27;;;8.70;;
75426;SDS011;64007;50.632;13.700;2023-01-29T17:30:57;15.95;;;6.97;;
75426;SDS011;64007;50.632;13.700;2023-01-29T17:33:23;11.10;;;5.60;;
75426;SDS011;64007;50.632;13.700;2023-01-29T17:35:51;13.90;;;5.88;;
75426;SDS011;64007;50.632;13.700;2023-01-29T17:38:18;14.40;;;6.35;;
75426;SDS011;64007;50.632;13.700;2023-01-29T17:43:24;14.52;;;6.40;;
75426;SDS011;64007;50.632;13.700;2023-01-29T17:45:50;11.52;;;6.07;;
75426;SDS011;64007;50.632;13.700;2023-01-29T17:48:24;11.55;;;6.30;;
75426;SDS011;64007;50.632;13.700;2023-01-29T17:50:52;15.05;;;7.10;;
75426;SDS011;64007;50.632;13.700;2023-01-29T17:53:19;17.13;;;7.82;;
75426;SDS011;64007;50.632;13.700;2023-01-29T17:55:46;21.40;;;9.77;;